sensor_id;sensor_type;location;lat;lon;timestamp;pressure;altitude;pressure_sealevel;temperature;humidity
39177;BME280;24904;52.208;21.192;2022-11-11T00:01:32;101738.25;;;7.69;81.94
39177;BME280;24904;52.208;21.192;2022-11-11T00:07:30;101737.33;;;7.74;82.08
39177;BME280;24904;52.208;21.192;2022-11-11T00:13:31;101742.00;;;7.76;82.12
39177;BME280;24904;52.208;21.192;2022-11-11T00:19:31;101745.45;;;7.80;82.26
39177;BME280;24904;52.208;21.192;2022-11-11T00:25:38;101755.00;;;7.84;82.59
39177;BME280;24904;52.208;21.192;2022-11-11T00:31:37;101758.02;;;7.90;82.93
39177;BME280;24904;52.208;21.192;2022-11-11T00:37:33;101758.88;;;7.97;82.71
39177;BME280;24904;52.208;21.192;2022-11-11T00:43:22;101756.45;;;7.99;82.70
39177;BME280;24904;52.208;21.192;2022-11-11T00:49:24;101752.55;;;7.90;81.73
39177;BME280;24904;52.208;21.192;2022-11-11T00:55:20;101749.64;;;7.69;81.05
39177;BME280;24904;52.208;21.192;2022-11-11T01:00:57;101752.83;;;7.53;80.79
39177;BME280;24904;52.208;21.192;2022-11-11T01:06:39;101756.00;;;7.40;80.60
39177;BME280;24904;52.208;21.192;2022-11-11T01:12:12;101752.96;;;7.29;80.55
39177;BME280;24904;52.208;21.192;2022-11-11T01:17:39;101750.31;;;7.17;80.39
39177;BME280;24904;52.208;21.192;2022-11-11T01:23:11;101752.77;;;7.09;80.68
39177;BME280;24904;52.208;21.192;2022-11-11T01:28:37;101751.77;;;7.05;80.83
39177;BME280;24904;52.208;21.192;2022-11-11T01:33:59;101747.69;;;7.04;81.28
39177;BME280;24904;52.208;21.192;2022-11-11T01:39:20;101747.16;;;7.08;81.66
39177;BME280;24904;52.208;21.192;2022-11-11T01:44:45;101744.67;;;7.10;81.73
39177;BME280;24904;52.208;21.192;2022-11-11T01:50:08;101744.55;;;7.10;82.11
39177;BME280;24904;52.208;21.192;2022-11-11T01:55:31;101741.30;;;7.15;82.43
39177;BME280;24904;52.208;21.192;2022-11-11T02:00:53;101742.10;;;7.20;82.77
39177;BME280;24904;52.208;21.192;2022-11-11T02:06:16;101730.27;;;7.24;83.01
39177;BME280;24904;52.208;21.192;2022-11-11T02:11:39;101727.06;;;7.34;83.49
39177;BME280;24904;52.208;21.192;2022-11-11T02:17:22;101718.73;;;7.43;83.82
39177;BME280;24904;52.208;21.192;2022-11-11T02:22:50;101717.33;;;7.52;83.86
39177;BME280;24904;52.208;21.192;2022-11-11T02:28:13;101716.59;;;7.61;84.04
39177;BME280;24904;52.208;21.192;2022-11-11T02:33:36;101717.87;;;7.66;83.82
39177;BME280;24904;52.208;21.192;2022-11-11T02:38:59;101726.00;;;7.67;83.71
39177;BME280;24904;52.208;21.192;2022-11-11T02:44:21;101729.75;;;7.71;83.57
39177;BME280;24904;52.208;21.192;2022-11-11T02:49:42;101731.36;;;7.72;83.47
39177;BME280;24904;52.208;21.192;2022-11-11T02:55:06;101742.42;;;7.70;83.32
39177;BME280;24904;52.208;21.192;2022-11-11T03:00:28;101754.27;;;7.67;82.98
39177;BME280;24904;52.208;21.192;2022-11-11T03:05:50;101755.46;;;7.61;82.86
39177;BME280;24904;52.208;21.192;2022-11-11T03:11:11;101759.38;;;7.58;82.68
39177;BME280;24904;52.208;21.192;2022-11-11T03:16:33;101767.30;;;7.53;82.63
39177;BME280;24904;52.208;21.192;2022-11-11T03:22:14;101769.70;;;7.48;82.49
39177;BME280;24904;52.208;21.192;2022-11-11T03:27:36;101771.36;;;7.40;82.24
39177;BME280;24904;52.208;21.192;2022-11-11T03:32:58;101762.71;;;7.32;82.22
39177;BME280;24904;52.208;21.192;2022-11-11T03:38:20;101763.59;;;7.29;82.62
39177;BME280;24904;52.208;21.192;2022-11-11T03:43:46;101761.71;;;7.29;82.84
39177;BME280;24904;52.208;21.192;2022-11-11T03:49:08;101762.81;;;7.32;82.96
39177;BME280;24904;52.208;21.192;2022-11-11T03:54:30;101768.80;;;7.36;83.40
39177;BME280;24904;52.208;21.192;2022-11-11T03:59:52;101773.77;;;7.43;83.67
39177;BME280;24904;52.208;21.192;2022-11-11T04:05:14;101775.79;;;7.51;83.64
39177;BME280;24904;52.208;21.192;2022-11-11T04:10:55;101778.13;;;7.55;83.68
39177;BME280;24904;52.208;21.192;2022-11-11T04:16:17;101785.48;;;7.54;83.52
39177;BME280;24904;52.208;21.192;2022-11-11T04:21:39;101786.58;;;7.50;83.63
39177;BME280;24904;52.208;21.192;2022-11-11T04:27:06;101794.20;;;7.54;83.88
39177;BME280;24904;52.208;21.192;2022-11-11T04:32:28;101811.48;;;7.60;83.99
39177;BME280;24904;52.208;21.192;2022-11-11T04:37:58;101817.86;;;7.64;84.10
39177;BME280;24904;52.208;21.192;2022-11-11T04:43:34;101809.49;;;7.67;84.01
39177;BME280;24904;52.208;21.192;2022-11-11T04:49:17;101803.77;;;7.69;84.05
39177;BME280;24904;52.208;21.192;2022-11-11T04:54:38;101799.87;;;7.71;84.20
39177;BME280;24904;52.208;21.192;2022-11-11T05:00:17;101803.02;;;7.76;84.23
39177;BME280;24904;52.208;21.192;2022-11-11T05:05:39;101805.48;;;7.77;84.19
39177;BME280;24904;52.208;21.192;2022-11-11T05:11:20;101814.45;;;7.81;84.24
39177;BME280;24904;52.208;21.192;2022-11-11T05:16:44;101815.80;;;7.83;84.09
39177;BME280;24904;52.208;21.192;2022-11-11T05:22:28;101814.80;;;7.81;84.33
39177;BME280;24904;52.208;21.192;2022-11-11T05:27:50;101807.27;;;7.88;84.39
39177;BME280;24904;52.208;21.192;2022-11-11T05:33:13;101797.57;;;7.90;84.40
39177;BME280;24904;52.208;21.192;2022-11-11T05:38:35;101799.84;;;7.93;84.46
39177;BME280;24904;52.208;21.192;2022-11-11T05:43:57;101782.94;;;7.99;84.53
39177;BME280;24904;52.208;21.192;2022-11-11T05:49:18;101792.23;;;8.01;84.56
39177;BME280;24904;52.208;21.192;2022-11-11T05:54:40;101795.34;;;8.03;84.50
39177;BME280;24904;52.208;21.192;2022-11-11T06:00:04;101802.64;;;8.08;84.58
39177;BME280;24904;52.208;21.192;2022-11-11T06:05:25;101806.13;;;8.13;84.69
39177;BME280;24904;52.208;21.192;2022-11-11T06:10:47;101801.98;;;8.18;84.75
39177;BME280;24904;52.208;21.192;2022-11-11T06:16:11;101803.13;;;8.21;84.67
39177;BME280;24904;52.208;21.192;2022-11-11T06:21:33;101799.29;;;8.24;84.85
39177;BME280;24904;52.208;21.192;2022-11-11T06:27:15;101798.35;;;8.31;84.98
39177;BME280;24904;52.208;21.192;2022-11-11T06:32:38;101801.35;;;8.37;84.93
39177;BME280;24904;52.208;21.192;2022-11-11T06:38:14;101810.16;;;8.42;85.00
39177;BME280;24904;52.208;21.192;2022-11-11T06:43:47;101812.25;;;8.48;85.06
39177;BME280;24904;52.208;21.192;2022-11-11T06:49:19;101808.80;;;8.56;84.98
39177;BME280;24904;52.208;21.192;2022-11-11T06:54:47;101811.45;;;8.61;85.02
39177;BME280;24904;52.208;21.192;2022-11-11T07:00:16;101813.21;;;8.68;84.95
39177;BME280;24904;52.208;21.192;2022-11-11T07:05:44;101814.23;;;8.75;84.95
39177;BME280;24904;52.208;21.192;2022-11-11T07:11:10;101817.41;;;8.81;84.89
39177;BME280;24904;52.208;21.192;2022-11-11T07:16:37;101810.85;;;8.85;84.93
39177;BME280;24904;52.208;21.192;2022-11-11T07:22:04;101801.44;;;8.89;85.24
39177;BME280;24904;52.208;21.192;2022-11-11T07:27:28;101800.80;;;8.93;85.03
39177;BME280;24904;52.208;21.192;2022-11-11T07:32:53;101799.10;;;8.98;85.04
39177;BME280;24904;52.208;21.192;2022-11-11T07:38:20;101790.02;;;9.03;84.99
39177;BME280;24904;52.208;21.192;2022-11-11T07:43:48;101777.19;;;9.09;85.02
39177;BME280;24904;52.208;21.192;2022-11-11T07:49:16;101773.23;;;9.16;84.97
39177;BME280;24904;52.208;21.192;2022-11-11T07:54:43;101770.96;;;9.20;84.97
39177;BME280;24904;52.208;21.192;2022-11-11T08:00:15;101777.63;;;9.27;84.99
39177;BME280;24904;52.208;21.192;2022-11-11T08:05:40;101779.36;;;9.31;85.13
39177;BME280;24904;52.208;21.192;2022-11-11T08:11:11;101789.55;;;9.35;85.06
39177;BME280;24904;52.208;21.192;2022-11-11T08:16:38;101794.69;;;9.41;85.09
39177;BME280;24904;52.208;21.192;2022-11-11T08:22:07;101814.37;;;9.47;85.21
39177;BME280;24904;52.208;21.192;2022-11-11T08:27:34;101816.93;;;9.53;85.23
39177;BME280;24904;52.208;21.192;2022-11-11T08:33:02;101815.30;;;9.61;85.23
39177;BME280;24904;52.208;21.192;2022-11-11T08:38:34;101818.48;;;9.71;85.21
39177;BME280;24904;52.208;21.192;2022-11-11T08:44:04;101824.81;;;9.83;85.54
39177;BME280;24904;52.208;21.192;2022-11-11T08:49:44;101820.41;;;9.95;85.24
39177;BME280;24904;52.208;21.192;2022-11-11T08:55:18;101815.74;;;10.05;85.10
39177;BME280;24904;52.208;21.192;2022-11-11T09:00:50;101820.73;;;10.15;84.72
39177;BME280;24904;52.208;21.192;2022-11-11T09:06:28;101822.04;;;10.24;84.53
39177;BME280;24904;52.208;21.192;2022-11-11T09:12:08;101819.77;;;10.33;84.37
39177;BME280;24904;52.208;21.192;2022-11-11T09:17:54;101818.17;;;10.44;84.45
39177;BME280;24904;52.208;21.192;2022-11-11T09:23:26;101823.11;;;10.53;84.22
39177;BME280;24904;52.208;21.192;2022-11-11T09:29:07;101816.48;;;10.58;83.87
39177;BME280;24904;52.208;21.192;2022-11-11T09:40:59;101811.83;;;10.74;83.86
39177;BME280;24904;52.208;21.192;2022-11-11T09:46:44;101815.51;;;10.81;83.63
39177;BME280;24904;52.208;21.192;2022-11-11T09:52:35;101813.52;;;10.87;83.54
39177;BME280;24904;52.208;21.192;2022-11-11T09:58:33;101808.54;;;10.91;83.35
39177;BME280;24904;52.208;21.192;2022-11-11T10:10:13;101792.80;;;11.01;83.17
39177;BME280;24904;52.208;21.192;2022-11-11T10:15:56;101786.04;;;11.07;82.86
39177;BME280;24904;52.208;21.192;2022-11-11T10:21:25;101771.61;;;11.10;82.66
39177;BME280;24904;52.208;21.192;2022-11-11T10:26:55;101776.05;;;11.13;82.53
39177;BME280;24904;52.208;21.192;2022-11-11T10:32:23;101777.98;;;11.17;82.22
39177;BME280;24904;52.208;21.192;2022-11-11T10:37:54;101770.21;;;11.20;81.97
39177;BME280;24904;52.208;21.192;2022-11-11T10:43:21;101778.66;;;11.25;81.60
39177;BME280;24904;52.208;21.192;2022-11-11T10:48:52;101778.08;;;11.31;81.73
39177;BME280;24904;52.208;21.192;2022-11-11T10:54:17;101775.52;;;11.37;81.68
39177;BME280;24904;52.208;21.192;2022-11-11T10:59:45;101771.35;;;11.42;81.27
39177;BME280;24904;52.208;21.192;2022-11-11T11:05:13;101764.52;;;11.44;81.18
39177;BME280;24904;52.208;21.192;2022-11-11T11:10:41;101752.27;;;11.51;81.06
39177;BME280;24904;52.208;21.192;2022-11-11T11:16:08;101758.46;;;11.53;80.63
39177;BME280;24904;52.208;21.192;2022-11-11T11:21:48;101752.59;;;11.56;80.46
39177;BME280;24904;52.208;21.192;2022-11-11T11:27:10;101751.42;;;11.56;80.08
39177;BME280;24904;52.208;21.192;2022-11-11T11:32:56;101738.96;;;11.57;79.79
39177;BME280;24904;52.208;21.192;2022-11-11T11:38:19;101735.50;;;11.57;79.46
39177;BME280;24904;52.208;21.192;2022-11-11T11:43:41;101731.95;;;11.57;79.45
39177;BME280;24904;52.208;21.192;2022-11-11T11:49:14;101739.20;;;11.55;79.49
39177;BME280;24904;52.208;21.192;2022-11-11T11:54:52;101739.00;;;11.54;79.37
39177;BME280;24904;52.208;21.192;2022-11-11T12:00:24;101734.48;;;11.57;79.32
39177;BME280;24904;52.208;21.192;2022-11-11T12:05:48;101742.25;;;11.60;79.32
39177;BME280;24904;52.208;21.192;2022-11-11T12:11:17;101728.59;;;11.60;79.07
39177;BME280;24904;52.208;21.192;2022-11-11T12:16:44;101722.52;;;11.63;79.11
39177;BME280;24904;52.208;21.192;2022-11-11T12:22:17;101725.39;;;11.65;79.04
39177;BME280;24904;52.208;21.192;2022-11-11T12:27:53;101729.04;;;11.66;78.87
39177;BME280;24904;52.208;21.192;2022-11-11T12:33:40;101732.11;;;11.66;78.64
39177;BME280;24904;52.208;21.192;2022-11-11T12:39:10;101736.71;;;11.68;78.70
39177;BME280;24904;52.208;21.192;2022-11-11T12:44:53;101744.21;;;11.68;78.52
39177;BME280;24904;52.208;21.192;2022-11-11T12:50:21;101743.34;;;11.68;78.55
39177;BME280;24904;52.208;21.192;2022-11-11T12:55:53;101742.33;;;11.66;78.24
39177;BME280;24904;52.208;21.192;2022-11-11T13:01:27;101744.58;;;11.62;78.17
39177;BME280;24904;52.208;21.192;2022-11-11T13:07:05;101738.75;;;11.58;78.12
39177;BME280;24904;52.208;21.192;2022-11-11T13:12:36;101737.20;;;11.54;77.87
39177;BME280;24904;52.208;21.192;2022-11-11T13:18:07;101731.34;;;11.50;77.99
39177;BME280;24904;52.208;21.192;2022-11-11T13:23:32;101728.21;;;11.47;77.73
39177;BME280;24904;52.208;21.192;2022-11-11T13:29:07;101715.67;;;11.43;77.56
39177;BME280;24904;52.208;21.192;2022-11-11T13:34:34;101719.02;;;11.39;77.20
39177;BME280;24904;52.208;21.192;2022-11-11T13:40:01;101708.27;;;11.35;77.16
39177;BME280;24904;52.208;21.192;2022-11-11T13:45:28;101714.73;;;11.36;77.13
39177;BME280;24904;52.208;21.192;2022-11-11T13:50:50;101713.39;;;11.36;76.96
39177;BME280;24904;52.208;21.192;2022-11-11T13:56:13;101713.90;;;11.31;76.80
39177;BME280;24904;52.208;21.192;2022-11-11T14:01:42;101709.79;;;11.27;76.94
39177;BME280;24904;52.208;21.192;2022-11-11T14:07:07;101715.77;;;11.27;76.81
39177;BME280;24904;52.208;21.192;2022-11-11T14:12:38;101715.94;;;11.23;76.82
39177;BME280;24904;52.208;21.192;2022-11-11T14:18:00;101713.27;;;11.18;76.94
39177;BME280;24904;52.208;21.192;2022-11-11T14:23:33;101720.73;;;11.13;76.79
39177;BME280;24904;52.208;21.192;2022-11-11T14:28:58;101724.39;;;11.10;77.00
39177;BME280;24904;52.208;21.192;2022-11-11T14:34:38;101726.91;;;11.04;76.97
39177;BME280;24904;52.208;21.192;2022-11-11T14:40:09;101737.14;;;10.99;77.22
39177;BME280;24904;52.208;21.192;2022-11-11T14:46:02;101739.02;;;10.92;77.11
39177;BME280;24904;52.208;21.192;2022-11-11T14:52:00;101738.15;;;10.84;77.18
39177;BME280;24904;52.208;21.192;2022-11-11T14:57:39;101735.53;;;10.79;77.44
39177;BME280;24904;52.208;21.192;2022-11-11T15:03:19;101749.30;;;10.75;77.43
39177;BME280;24904;52.208;21.192;2022-11-11T15:09:06;101749.36;;;10.74;77.84
39177;BME280;24904;52.208;21.192;2022-11-11T15:14:53;101748.01;;;10.76;77.78
39177;BME280;24904;52.208;21.192;2022-11-11T15:20:45;101748.83;;;10.75;77.64
39177;BME280;24904;52.208;21.192;2022-11-11T15:26:29;101747.13;;;10.73;77.76
39177;BME280;24904;52.208;21.192;2022-11-11T15:32:15;101757.20;;;10.74;77.96
39177;BME280;24904;52.208;21.192;2022-11-11T15:38:01;101757.42;;;10.73;77.92
39177;BME280;24904;52.208;21.192;2022-11-11T15:43:42;101766.09;;;10.72;78.03
39177;BME280;24904;52.208;21.192;2022-11-11T15:49:40;101777.95;;;10.68;77.99
39177;BME280;24904;52.208;21.192;2022-11-11T15:55:23;101780.40;;;10.63;78.30
39177;BME280;24904;52.208;21.192;2022-11-11T16:00:57;101788.98;;;10.62;78.13
39177;BME280;24904;52.208;21.192;2022-11-11T16:06:34;101787.18;;;10.59;78.23
39177;BME280;24904;52.208;21.192;2022-11-11T16:12:08;101784.39;;;10.58;78.29
39177;BME280;24904;52.208;21.192;2022-11-11T16:17:50;101786.11;;;10.58;78.46
39177;BME280;24904;52.208;21.192;2022-11-11T16:23:28;101777.02;;;10.47;78.40
39177;BME280;24904;52.208;21.192;2022-11-11T16:29:09;101777.20;;;10.50;78.57
39177;BME280;24904;52.208;21.192;2022-11-11T16:34:55;101775.58;;;10.48;78.96
39177;BME280;24904;52.208;21.192;2022-11-11T16:40:40;101776.70;;;10.51;79.14
39177;BME280;24904;52.208;21.192;2022-11-11T16:52:11;101766.77;;;10.52;79.33
39177;BME280;24904;52.208;21.192;2022-11-11T16:57:45;101771.23;;;10.55;79.41
39177;BME280;24904;52.208;21.192;2022-11-11T17:03:25;101774.77;;;10.57;79.25
39177;BME280;24904;52.208;21.192;2022-11-11T17:09:02;101780.87;;;10.61;79.29
39177;BME280;24904;52.208;21.192;2022-11-11T17:15:07;101787.40;;;10.57;79.39
39177;BME280;24904;52.208;21.192;2022-11-11T17:20:45;101798.38;;;10.50;79.44
39177;BME280;24904;52.208;21.192;2022-11-11T17:26:23;101807.09;;;10.50;79.61
39177;BME280;24904;52.208;21.192;2022-11-11T17:31:57;101809.90;;;10.47;79.68
39177;BME280;24904;52.208;21.192;2022-11-11T17:37:31;101808.19;;;10.47;79.85
39177;BME280;24904;52.208;21.192;2022-11-11T17:43:09;101812.92;;;10.51;79.85
39177;BME280;24904;52.208;21.192;2022-11-11T17:48:42;101809.20;;;10.50;79.81
39177;BME280;24904;52.208;21.192;2022-11-11T17:54:15;101805.27;;;10.47;80.03
39177;BME280;24904;52.208;21.192;2022-11-11T17:59:51;101807.48;;;10.48;80.06
39177;BME280;24904;52.208;21.192;2022-11-11T18:05:29;101802.95;;;10.45;79.77
39177;BME280;24904;52.208;21.192;2022-11-11T18:11:07;101807.64;;;10.45;80.07
39177;BME280;24904;52.208;21.192;2022-11-11T18:16:40;101799.78;;;10.47;80.34
39177;BME280;24904;52.208;21.192;2022-11-11T18:22:14;101795.64;;;10.50;80.30
39177;BME280;24904;52.208;21.192;2022-11-11T18:28:01;101782.52;;;10.50;80.32
39177;BME280;24904;52.208;21.192;2022-11-11T18:33:34;101781.05;;;10.52;80.34
39177;BME280;24904;52.208;21.192;2022-11-11T18:39:11;101788.73;;;10.50;80.29
39177;BME280;24904;52.208;21.192;2022-11-11T18:44:46;101795.45;;;10.54;80.24
39177;BME280;24904;52.208;21.192;2022-11-11T18:50:19;101797.04;;;10.55;80.48
39177;BME280;24904;52.208;21.192;2022-11-11T18:55:54;101802.42;;;10.51;80.64
39177;BME280;24904;52.208;21.192;2022-11-11T19:01:36;101806.72;;;10.48;80.46
39177;BME280;24904;52.208;21.192;2022-11-11T19:07:16;101809.27;;;10.52;80.67
39177;BME280;24904;52.208;21.192;2022-11-11T19:12:50;101812.74;;;10.52;80.79
39177;BME280;24904;52.208;21.192;2022-11-11T19:18:26;101819.27;;;10.55;81.08
39177;BME280;24904;52.208;21.192;2022-11-11T19:24:02;101833.22;;;10.52;80.92
39177;BME280;24904;52.208;21.192;2022-11-11T19:29:38;101836.98;;;10.52;81.18
39177;BME280;24904;52.208;21.192;2022-11-11T19:35:20;101843.79;;;10.49;81.39
39177;BME280;24904;52.208;21.192;2022-11-11T19:40:55;101855.98;;;10.43;81.46
39177;BME280;24904;52.208;21.192;2022-11-11T19:46:29;101867.85;;;10.42;82.01
39177;BME280;24904;52.208;21.192;2022-11-11T19:52:05;101877.89;;;10.35;82.48
39177;BME280;24904;52.208;21.192;2022-11-11T19:57:43;101878.59;;;10.33;82.79
39177;BME280;24904;52.208;21.192;2022-11-11T20:03:19;101871.97;;;10.24;83.18
39177;BME280;24904;52.208;21.192;2022-11-11T20:08:55;101868.54;;;10.20;83.77
39177;BME280;24904;52.208;21.192;2022-11-11T20:14:36;101870.04;;;10.18;83.76
39177;BME280;24904;52.208;21.192;2022-11-11T20:20:13;101867.34;;;10.21;83.79
39177;BME280;24904;52.208;21.192;2022-11-11T20:25:52;101857.19;;;10.27;83.98
39177;BME280;24904;52.208;21.192;2022-11-11T20:31:32;101858.48;;;10.29;83.94
39177;BME280;24904;52.208;21.192;2022-11-11T20:37:12;101874.70;;;10.34;84.04
39177;BME280;24904;52.208;21.192;2022-11-11T20:42:50;101875.52;;;10.37;84.05
39177;BME280;24904;52.208;21.192;2022-11-11T20:48:28;101878.38;;;10.40;83.71
39177;BME280;24904;52.208;21.192;2022-11-11T20:54:02;101883.91;;;10.39;83.62
39177;BME280;24904;52.208;21.192;2022-11-11T20:59:37;101886.93;;;10.38;83.53
39177;BME280;24904;52.208;21.192;2022-11-11T21:05:13;101887.77;;;10.37;83.68
39177;BME280;24904;52.208;21.192;2022-11-11T21:10:50;101884.30;;;10.41;83.54
39177;BME280;24904;52.208;21.192;2022-11-11T21:16:30;101884.23;;;10.43;83.56
39177;BME280;24904;52.208;21.192;2022-11-11T21:22:07;101885.95;;;10.39;83.42
39177;BME280;24904;52.208;21.192;2022-11-11T21:27:52;101889.29;;;10.38;83.51
39177;BME280;24904;52.208;21.192;2022-11-11T21:33:41;101884.79;;;10.39;83.53
39177;BME280;24904;52.208;21.192;2022-11-11T21:39:39;101886.06;;;10.40;83.52
39177;BME280;24904;52.208;21.192;2022-11-11T21:45:29;101888.27;;;10.42;83.42
39177;BME280;24904;52.208;21.192;2022-11-11T21:51:22;101891.95;;;10.42;83.68
39177;BME280;24904;52.208;21.192;2022-11-11T21:57:10;101901.05;;;10.47;83.61
39177;BME280;24904;52.208;21.192;2022-11-11T22:02:49;101902.49;;;10.50;83.40
39177;BME280;24904;52.208;21.192;2022-11-11T22:08:21;101903.80;;;10.51;83.54
39177;BME280;24904;52.208;21.192;2022-11-11T22:13:49;101907.30;;;10.55;83.43
39177;BME280;24904;52.208;21.192;2022-11-11T22:19:15;101907.02;;;10.60;83.49
39177;BME280;24904;52.208;21.192;2022-11-11T22:24:37;101906.98;;;10.58;83.37
39177;BME280;24904;52.208;21.192;2022-11-11T22:29:59;101905.39;;;10.56;83.34
39177;BME280;24904;52.208;21.192;2022-11-11T22:35:21;101909.49;;;10.54;83.36
39177;BME280;24904;52.208;21.192;2022-11-11T22:40:42;101909.02;;;10.56;83.49
39177;BME280;24904;52.208;21.192;2022-11-11T22:46:05;101905.73;;;10.57;83.42
39177;BME280;24904;52.208;21.192;2022-11-11T22:51:29;101902.08;;;10.60;83.69
39177;BME280;24904;52.208;21.192;2022-11-11T22:56:51;101901.42;;;10.61;83.61
39177;BME280;24904;52.208;21.192;2022-11-11T23:02:13;101901.67;;;10.59;83.39
39177;BME280;24904;52.208;21.192;2022-11-11T23:07:35;101900.98;;;10.56;83.74
39177;BME280;24904;52.208;21.192;2022-11-11T23:12:56;101903.02;;;10.56;83.67
39177;BME280;24904;52.208;21.192;2022-11-11T23:18:18;101904.33;;;10.53;83.84
39177;BME280;24904;52.208;21.192;2022-11-11T23:23:40;101902.84;;;10.51;83.78
39177;BME280;24904;52.208;21.192;2022-11-11T23:29:03;101903.11;;;10.49;83.91
39177;BME280;24904;52.208;21.192;2022-11-11T23:34:24;101903.25;;;10.49;83.85
39177;BME280;24904;52.208;21.192;2022-11-11T23:39:46;101903.14;;;10.50;83.93
39177;BME280;24904;52.208;21.192;2022-11-11T23:45:09;101910.11;;;10.54;83.89
39177;BME280;24904;52.208;21.192;2022-11-11T23:50:31;101912.89;;;10.59;84.12
39177;BME280;24904;52.208;21.192;2022-11-11T23:55:53;101913.30;;;10.59;83.99
